sensor_id;sensor_type;location;lat;lon;timestamp;P1;durP1;ratioP1;P2;durP2;ratioP2
72949;SDS011;64868;45.710;9.590;2023-05-29T00:00:56;15.32;;;8.27;;
72949;SDS011;64868;45.710;9.590;2023-05-29T00:03:34;14.07;;;8.57;;
72949;SDS011;64868;45.710;9.590;2023-05-29T00:06:13;14.05;;;8.73;;
72949;SDS011;64868;45.710;9.590;2023-05-29T00:08:52;12.15;;;8.05;;
72949;SDS011;64868;45.710;9.590;2023-05-29T00:11:31;17.60;;;8.38;;
72949;SDS011;64868;45.710;9.590;2023-05-29T00:14:09;13.32;;;8.55;;
72949;SDS011;64868;45.710;9.590;2023-05-29T00:16:48;13.00;;;8.77;;
72949;SDS011;64868;45.710;9.590;2023-05-29T00:19:26;15.52;;;8.95;;
72949;SDS011;64868;45.710;9.590;2023-05-29T00:22:05;14.57;;;8.65;;
72949;SDS011;64868;45.710;9.590;2023-05-29T00:24:44;15.65;;;8.85;;
72949;SDS011;64868;45.710;9.590;2023-05-29T00:27:23;13.95;;;8.68;;
72949;SDS011;64868;45.710;9.590;2023-05-29T00:33:09;15.00;;;9.07;;
72949;SDS011;64868;45.710;9.590;2023-05-29T00:35:48;14.80;;;8.32;;
72949;SDS011;64868;45.710;9.590;2023-05-29T00:38:26;15.25;;;7.93;;
72949;SDS011;64868;45.710;9.590;2023-05-29T00:41:05;11.95;;;7.47;;
72949;SDS011;64868;45.710;9.590;2023-05-29T00:43:58;12.85;;;6.80;;
72949;SDS011;64868;45.710;9.590;2023-05-29T00:46:36;12.95;;;8.07;;
72949;SDS011;64868;45.710;9.590;2023-05-29T00:49:29;12.68;;;7.68;;
72949;SDS011;64868;45.710;9.590;2023-05-29T00:52:09;10.05;;;6.03;;
72949;SDS011;64868;45.710;9.590;2023-05-29T00:54:48;12.75;;;6.90;;
72949;SDS011;64868;45.710;9.590;2023-05-29T01:00:34;10.00;;;5.47;;
72949;SDS011;64868;45.710;9.590;2023-05-29T01:06:20;11.15;;;5.20;;
72949;SDS011;64868;45.710;9.590;2023-05-29T01:09:13;12.40;;;6.10;;
72949;SDS011;64868;45.710;9.590;2023-05-29T01:11:51;10.88;;;5.70;;
72949;SDS011;64868;45.710;9.590;2023-05-29T01:20:44;9.73;;;5.45;;
72949;SDS011;64868;45.710;9.590;2023-05-29T01:23:48;9.60;;;5.25;;
72949;SDS011;64868;45.710;9.590;2023-05-29T01:26:53;9.52;;;5.07;;
72949;SDS011;64868;45.710;9.590;2023-05-29T01:29:34;8.57;;;4.82;;
72949;SDS011;64868;45.710;9.590;2023-05-29T01:32:13;11.48;;;5.45;;
72949;SDS011;64868;45.710;9.590;2023-05-29T01:34:52;11.00;;;5.15;;
72949;SDS011;64868;45.710;9.590;2023-05-29T01:37:31;9.77;;;4.82;;
72949;SDS011;64868;45.710;9.590;2023-05-29T01:40:23;10.75;;;5.18;;
72949;SDS011;64868;45.710;9.590;2023-05-29T01:45:55;11.85;;;4.85;;
72949;SDS011;64868;45.710;9.590;2023-05-29T01:48:48;10.70;;;4.97;;
72949;SDS011;64868;45.710;9.590;2023-05-29T01:51:41;9.13;;;5.20;;
72949;SDS011;64868;45.710;9.590;2023-05-29T01:54:34;13.73;;;5.28;;
72949;SDS011;64868;45.710;9.590;2023-05-29T01:57:13;10.80;;;4.95;;
72949;SDS011;64868;45.710;9.590;2023-05-29T01:59:52;9.07;;;4.82;;
72949;SDS011;64868;45.710;9.590;2023-05-29T02:02:31;11.73;;;5.32;;
72949;SDS011;64868;45.710;9.590;2023-05-29T02:05:09;9.25;;;4.75;;
72949;SDS011;64868;45.710;9.590;2023-05-29T02:07:48;9.70;;;5.15;;
72949;SDS011;64868;45.710;9.590;2023-05-29T02:13:19;10.65;;;5.18;;
72949;SDS011;64868;45.710;9.590;2023-05-29T02:15:58;10.32;;;5.22;;
72949;SDS011;64868;45.710;9.590;2023-05-29T02:18:37;10.43;;;4.57;;
72949;SDS011;64868;45.710;9.590;2023-05-29T02:24:09;9.90;;;5.53;;
72949;SDS011;64868;45.710;9.590;2023-05-29T02:27:02;12.25;;;5.88;;
72949;SDS011;64868;45.710;9.590;2023-05-29T02:32:34;11.00;;;5.18;;
72949;SDS011;64868;45.710;9.590;2023-05-29T02:35:13;13.50;;;6.43;;
72949;SDS011;64868;45.710;9.590;2023-05-29T02:37:51;10.95;;;6.03;;
72949;SDS011;64868;45.710;9.590;2023-05-29T02:40:30;12.90;;;5.32;;
72949;SDS011;64868;45.710;9.590;2023-05-29T02:43:23;12.80;;;6.13;;
72949;SDS011;64868;45.710;9.590;2023-05-29T02:46:02;11.70;;;5.40;;
72949;SDS011;64868;45.710;9.590;2023-05-29T02:51:47;9.57;;;5.50;;
72949;SDS011;64868;45.710;9.590;2023-05-29T02:54:40;11.25;;;5.45;;
72949;SDS011;64868;45.710;9.590;2023-05-29T02:57:33;12.80;;;6.15;;
72949;SDS011;64868;45.710;9.590;2023-05-29T03:00:12;11.10;;;5.90;;
72949;SDS011;64868;45.710;9.590;2023-05-29T03:03:05;9.77;;;5.50;;
72949;SDS011;64868;45.710;9.590;2023-05-29T03:05:58;8.77;;;4.97;;
72949;SDS011;64868;45.710;9.590;2023-05-29T03:08:37;12.88;;;5.10;;
72949;SDS011;64868;45.710;9.590;2023-05-29T03:11:15;9.52;;;5.40;;
72949;SDS011;64868;45.710;9.590;2023-05-29T03:14:08;10.52;;;5.47;;
72949;SDS011;64868;45.710;9.590;2023-05-29T03:16:47;9.43;;;5.22;;
72949;SDS011;64868;45.710;9.590;2023-05-29T03:19:25;10.82;;;5.20;;
72949;SDS011;64868;45.710;9.590;2023-05-29T03:22:04;12.02;;;6.28;;
72949;SDS011;64868;45.710;9.590;2023-05-29T03:24:42;10.63;;;5.72;;
72949;SDS011;64868;45.710;9.590;2023-05-29T03:27:21;14.25;;;6.03;;
72949;SDS011;64868;45.710;9.590;2023-05-29T03:29:59;11.18;;;6.05;;
72949;SDS011;64868;45.710;9.590;2023-05-29T03:32:38;11.93;;;5.95;;
72949;SDS011;64868;45.710;9.590;2023-05-29T03:35:16;12.32;;;6.15;;
72949;SDS011;64868;45.710;9.590;2023-05-29T03:38:09;11.27;;;6.03;;
72949;SDS011;64868;45.710;9.590;2023-05-29T03:40:48;14.40;;;6.60;;
72949;SDS011;64868;45.710;9.590;2023-05-29T03:46:19;13.13;;;6.72;;
72949;SDS011;64868;45.710;9.590;2023-05-29T03:48:58;11.00;;;6.43;;
72949;SDS011;64868;45.710;9.590;2023-05-29T03:51:37;12.52;;;7.05;;
72949;SDS011;64868;45.710;9.590;2023-05-29T03:54:30;11.25;;;6.10;;
72949;SDS011;64868;45.710;9.590;2023-05-29T04:57:52;8.23;;;4.80;;
72949;SDS011;64868;45.710;9.590;2023-05-29T05:00:20;11.05;;;4.90;;
72949;SDS011;64868;45.710;9.590;2023-05-29T05:02:53;8.43;;;4.50;;
72949;SDS011;64868;45.710;9.590;2023-05-29T05:08:30;8.93;;;4.63;;
72949;SDS011;64868;45.710;9.590;2023-05-29T05:11:00;9.07;;;4.63;;
72949;SDS011;64868;45.710;9.590;2023-05-29T05:13:32;9.40;;;4.97;;
72949;SDS011;64868;45.710;9.590;2023-05-29T05:16:03;9.25;;;4.53;;
72949;SDS011;64868;45.710;9.590;2023-05-29T05:18:36;8.88;;;4.53;;
72949;SDS011;64868;45.710;9.590;2023-05-29T05:21:09;10.30;;;4.85;;
72949;SDS011;64868;45.710;9.590;2023-05-29T05:29:14;10.65;;;4.30;;
72949;SDS011;64868;45.710;9.590;2023-05-29T05:31:47;8.35;;;4.03;;
72949;SDS011;64868;45.710;9.590;2023-05-29T05:34:34;8.23;;;3.92;;
72949;SDS011;64868;45.710;9.590;2023-05-29T05:37:04;8.57;;;4.40;;
72949;SDS011;64868;45.710;9.590;2023-05-29T05:39:36;9.43;;;4.38;;
72949;SDS011;64868;45.710;9.590;2023-05-29T05:42:09;8.38;;;3.88;;
72949;SDS011;64868;45.710;9.590;2023-05-29T05:44:39;9.90;;;4.53;;
72949;SDS011;64868;45.710;9.590;2023-05-29T05:47:09;8.95;;;4.78;;
72949;SDS011;64868;45.710;9.590;2023-05-29T05:49:37;10.20;;;4.47;;
72949;SDS011;64868;45.710;9.590;2023-05-29T05:52:07;10.77;;;4.60;;
72949;SDS011;64868;45.710;9.590;2023-05-29T05:54:37;12.18;;;4.65;;
72949;SDS011;64868;45.710;9.590;2023-05-29T05:57:27;10.15;;;4.68;;
72949;SDS011;64868;45.710;9.590;2023-05-29T05:59:59;8.82;;;4.20;;
72949;SDS011;64868;45.710;9.590;2023-05-29T06:02:34;8.82;;;4.05;;
72949;SDS011;64868;45.710;9.590;2023-05-29T06:05:01;10.10;;;4.55;;
72949;SDS011;64868;45.710;9.590;2023-05-29T06:10:20;11.43;;;4.40;;
72949;SDS011;64868;45.710;9.590;2023-05-29T06:12:53;10.55;;;4.57;;
72949;SDS011;64868;45.710;9.590;2023-05-29T06:15:25;13.13;;;5.25;;
72949;SDS011;64868;45.710;9.590;2023-05-29T06:17:58;9.65;;;4.90;;
72949;SDS011;64868;45.710;9.590;2023-05-29T06:20:23;12.18;;;5.07;;
72949;SDS011;64868;45.710;9.590;2023-05-29T06:22:52;10.85;;;5.95;;
72949;SDS011;64868;45.710;9.590;2023-05-29T06:25:40;13.43;;;6.38;;
72949;SDS011;64868;45.710;9.590;2023-05-29T06:28:10;13.50;;;5.90;;
72949;SDS011;64868;45.710;9.590;2023-05-29T06:30:57;13.70;;;6.50;;
72949;SDS011;64868;45.710;9.590;2023-05-29T06:33:29;11.52;;;6.25;;
72949;SDS011;64868;45.710;9.590;2023-05-29T06:39:02;11.07;;;6.70;;
72949;SDS011;64868;45.710;9.590;2023-05-29T06:41:35;12.85;;;6.55;;
72949;SDS011;64868;45.710;9.590;2023-05-29T06:44:24;13.35;;;6.82;;
72949;SDS011;64868;45.710;9.590;2023-05-29T06:46:56;12.88;;;7.22;;
72949;SDS011;64868;45.710;9.590;2023-05-29T06:49:29;12.07;;;6.20;;
72949;SDS011;64868;45.710;9.590;2023-05-29T06:51:59;14.20;;;6.97;;
72949;SDS011;64868;45.710;9.590;2023-05-29T06:54:45;11.40;;;6.85;;
72949;SDS011;64868;45.710;9.590;2023-05-29T07:00:05;12.88;;;6.53;;
72949;SDS011;64868;45.710;9.590;2023-05-29T07:02:38;12.10;;;6.60;;
72949;SDS011;64868;45.710;9.590;2023-05-29T07:05:11;10.73;;;6.47;;
72949;SDS011;64868;45.710;9.590;2023-05-29T07:07:41;10.60;;;5.90;;
72949;SDS011;64868;45.710;9.590;2023-05-29T07:10:12;11.20;;;5.70;;
72949;SDS011;64868;45.710;9.590;2023-05-29T07:13:00;16.55;;;5.68;;
72949;SDS011;64868;45.710;9.590;2023-05-29T07:15:31;14.45;;;5.28;;
72949;SDS011;64868;45.710;9.590;2023-05-29T07:18:01;13.07;;;5.40;;
72949;SDS011;64868;45.710;9.590;2023-05-29T07:20:32;8.93;;;4.63;;
72949;SDS011;64868;45.710;9.590;2023-05-29T07:23:05;10.13;;;5.45;;
72949;SDS011;64868;45.710;9.590;2023-05-29T07:25:51;14.25;;;5.50;;
72949;SDS011;64868;45.710;9.590;2023-05-29T07:28:23;10.40;;;4.85;;
72949;SDS011;64868;45.710;9.590;2023-05-29T07:31:10;10.85;;;5.03;;
72949;SDS011;64868;45.710;9.590;2023-05-29T07:33:40;9.82;;;5.25;;
72949;SDS011;64868;45.710;9.590;2023-05-29T07:36:13;13.95;;;4.75;;
72949;SDS011;64868;45.710;9.590;2023-05-29T07:38:45;12.35;;;5.25;;
72949;SDS011;64868;45.710;9.590;2023-05-29T07:41:32;10.65;;;5.05;;
72949;SDS011;64868;45.710;9.590;2023-05-29T07:44:21;11.35;;;5.20;;
72949;SDS011;64868;45.710;9.590;2023-05-29T07:46:53;10.68;;;5.88;;
72949;SDS011;64868;45.710;9.590;2023-05-29T07:49:23;8.82;;;4.68;;
72949;SDS011;64868;45.710;9.590;2023-05-29T07:51:56;10.48;;;5.75;;
72949;SDS011;64868;45.710;9.590;2023-05-29T07:54:26;12.32;;;5.68;;
72949;SDS011;64868;45.710;9.590;2023-05-29T07:56:59;13.10;;;5.78;;
72949;SDS011;64868;45.710;9.590;2023-05-29T07:59:36;10.07;;;5.55;;
72949;SDS011;64868;45.710;9.590;2023-05-29T08:02:10;11.32;;;5.82;;
72949;SDS011;64868;45.710;9.590;2023-05-29T08:04:40;11.55;;;6.10;;
72949;SDS011;64868;45.710;9.590;2023-05-29T08:07:29;14.15;;;5.93;;
72949;SDS011;64868;45.710;9.590;2023-05-29T08:09:59;11.52;;;5.50;;
72949;SDS011;64868;45.710;9.590;2023-05-29T08:12:29;14.65;;;5.47;;
72949;SDS011;64868;45.710;9.590;2023-05-29T08:17:50;13.38;;;6.47;;
72949;SDS011;64868;45.710;9.590;2023-05-29T08:20:39;11.88;;;6.60;;
72949;SDS011;64868;45.710;9.590;2023-05-29T08:23:25;11.85;;;6.25;;
72949;SDS011;64868;45.710;9.590;2023-05-29T08:28:50;11.43;;;6.30;;
72949;SDS011;64868;45.710;9.590;2023-05-29T08:31:23;14.10;;;6.40;;
72949;SDS011;64868;45.710;9.590;2023-05-29T08:34:11;12.98;;;6.28;;
72949;SDS011;64868;45.710;9.590;2023-05-29T08:36:44;9.90;;;5.65;;
72949;SDS011;64868;45.710;9.590;2023-05-29T08:39:33;11.68;;;6.28;;
72949;SDS011;64868;45.710;9.590;2023-05-29T08:42:31;10.50;;;5.75;;
72949;SDS011;64868;45.710;9.590;2023-05-29T08:45:06;11.27;;;6.00;;
72949;SDS011;64868;45.710;9.590;2023-05-29T08:47:43;15.93;;;6.18;;
72949;SDS011;64868;45.710;9.590;2023-05-29T08:50:32;12.00;;;6.20;;
72949;SDS011;64868;45.710;9.590;2023-05-29T08:56:12;12.13;;;6.43;;
72949;SDS011;64868;45.710;9.590;2023-05-29T08:58:45;10.88;;;6.22;;
72949;SDS011;64868;45.710;9.590;2023-05-29T09:01:17;12.43;;;6.20;;
72949;SDS011;64868;45.710;9.590;2023-05-29T09:03:47;11.85;;;6.15;;
72949;SDS011;64868;45.710;9.590;2023-05-29T09:09:06;12.00;;;6.60;;
72949;SDS011;64868;45.710;9.590;2023-05-29T09:11:37;10.43;;;5.82;;
72949;SDS011;64868;45.710;9.590;2023-05-29T09:20:19;12.05;;;5.65;;
72949;SDS011;64868;45.710;9.590;2023-05-29T09:25:42;8.05;;;4.70;;
72949;SDS011;64868;45.710;9.590;2023-05-29T09:28:20;9.02;;;4.72;;
72949;SDS011;64868;45.710;9.590;2023-05-29T09:30:53;11.00;;;5.22;;
72949;SDS011;64868;45.710;9.590;2023-05-29T09:33:25;8.63;;;4.70;;
72949;SDS011;64868;45.710;9.590;2023-05-29T09:35:59;12.35;;;5.80;;
72949;SDS011;64868;45.710;9.590;2023-05-29T09:38:29;9.80;;;5.20;;
72949;SDS011;64868;45.710;9.590;2023-05-29T09:41:03;10.82;;;5.10;;
72949;SDS011;64868;45.710;9.590;2023-05-29T09:43:36;11.80;;;4.85;;
72949;SDS011;64868;45.710;9.590;2023-05-29T09:48:54;8.10;;;4.60;;
72949;SDS011;64868;45.710;9.590;2023-05-29T09:51:30;11.30;;;5.28;;
72949;SDS011;64868;45.710;9.590;2023-05-29T09:53:58;12.52;;;4.90;;
72949;SDS011;64868;45.710;9.590;2023-05-29T09:59:32;12.60;;;5.47;;
72949;SDS011;64868;45.710;9.590;2023-05-29T10:02:04;12.43;;;5.43;;
72949;SDS011;64868;45.710;9.590;2023-05-29T10:04:34;8.70;;;5.10;;
72949;SDS011;64868;45.710;9.590;2023-05-29T10:07:23;10.32;;;5.07;;
72949;SDS011;64868;45.710;9.590;2023-05-29T10:10:02;12.60;;;7.60;;
72949;SDS011;64868;45.710;9.590;2023-05-29T10:12:35;9.43;;;4.93;;
72949;SDS011;64868;45.710;9.590;2023-05-29T10:15:11;8.98;;;4.80;;
72949;SDS011;64868;45.710;9.590;2023-05-29T10:23:37;10.00;;;5.10;;
72949;SDS011;64868;45.710;9.590;2023-05-29T10:26:23;8.27;;;4.50;;
72949;SDS011;64868;45.710;9.590;2023-05-29T10:28:58;10.80;;;4.45;;
72949;SDS011;64868;45.710;9.590;2023-05-29T10:32:19;8.32;;;4.53;;
72949;SDS011;64868;45.710;9.590;2023-05-29T10:34:44;9.82;;;4.93;;
72949;SDS011;64868;45.710;9.590;2023-05-29T10:40:39;9.13;;;4.88;;
72949;SDS011;64868;45.710;9.590;2023-05-29T10:51:26;9.68;;;4.65;;
72949;SDS011;64868;45.710;9.590;2023-05-29T10:54:00;9.10;;;4.38;;
72949;SDS011;64868;45.710;9.590;2023-05-29T10:56:33;8.38;;;4.20;;
72949;SDS011;64868;45.710;9.590;2023-05-29T11:01:57;9.15;;;4.40;;
72949;SDS011;64868;45.710;9.590;2023-05-29T11:04:27;9.75;;;4.35;;
72949;SDS011;64868;45.710;9.590;2023-05-29T11:06:58;7.95;;;4.18;;
72949;SDS011;64868;45.710;9.590;2023-05-29T11:09:31;8.65;;;4.50;;
72949;SDS011;64868;45.710;9.590;2023-05-29T11:12:16;9.10;;;4.03;;
72949;SDS011;64868;45.710;9.590;2023-05-29T11:15:03;11.23;;;5.40;;
72949;SDS011;64868;45.710;9.590;2023-05-29T11:17:50;8.55;;;4.55;;
72949;SDS011;64868;45.710;9.590;2023-05-29T11:20:54;9.10;;;4.60;;
72949;SDS011;64868;45.710;9.590;2023-05-29T11:23:31;12.70;;;4.57;;
72949;SDS011;64868;45.710;9.590;2023-05-29T11:26:05;10.95;;;5.25;;
72949;SDS011;64868;45.710;9.590;2023-05-29T11:28:38;9.85;;;5.28;;
72949;SDS011;64868;45.710;9.590;2023-05-29T11:31:24;9.30;;;4.88;;
72949;SDS011;64868;45.710;9.590;2023-05-29T11:34:10;8.82;;;4.45;;
72949;SDS011;64868;45.710;9.590;2023-05-29T11:36:46;9.68;;;4.65;;
72949;SDS011;64868;45.710;9.590;2023-05-29T11:44:19;9.13;;;4.53;;
72949;SDS011;64868;45.710;9.590;2023-05-29T11:47:05;8.38;;;4.13;;
72949;SDS011;64868;45.710;9.590;2023-05-29T11:49:54;11.68;;;4.90;;
72949;SDS011;64868;45.710;9.590;2023-05-29T11:52:27;9.32;;;5.10;;
72949;SDS011;64868;45.710;9.590;2023-05-29T11:55:05;10.30;;;4.88;;
72949;SDS011;64868;45.710;9.590;2023-05-29T11:57:35;10.25;;;5.07;;
72949;SDS011;64868;45.710;9.590;2023-05-29T12:00:24;16.15;;;5.82;;
72949;SDS011;64868;45.710;9.590;2023-05-29T12:02:57;10.48;;;5.13;;
72949;SDS011;64868;45.710;9.590;2023-05-29T12:05:38;8.75;;;4.45;;
72949;SDS011;64868;45.710;9.590;2023-05-29T12:08:16;13.57;;;4.95;;
72949;SDS011;64868;45.710;9.590;2023-05-29T12:10:51;10.13;;;4.75;;
72949;SDS011;64868;45.710;9.590;2023-05-29T12:13:23;7.78;;;4.03;;
72949;SDS011;64868;45.710;9.590;2023-05-29T12:15:56;9.38;;;4.82;;
72949;SDS011;64868;45.710;9.590;2023-05-29T12:18:28;10.40;;;4.85;;
72949;SDS011;64868;45.710;9.590;2023-05-29T12:21:16;12.60;;;5.32;;
72949;SDS011;64868;45.710;9.590;2023-05-29T12:23:46;12.18;;;4.78;;
72949;SDS011;64868;45.710;9.590;2023-05-29T12:26:17;11.40;;;5.10;;
72949;SDS011;64868;45.710;9.590;2023-05-29T12:28:49;11.57;;;4.88;;
72949;SDS011;64868;45.710;9.590;2023-05-29T12:31:30;9.60;;;4.28;;
72949;SDS011;64868;45.710;9.590;2023-05-29T12:34:19;12.27;;;4.75;;
72949;SDS011;64868;45.710;9.590;2023-05-29T12:37:08;9.45;;;5.05;;
72949;SDS011;64868;45.710;9.590;2023-05-29T12:39:42;10.40;;;4.72;;
72949;SDS011;64868;45.710;9.590;2023-05-29T12:42:12;10.75;;;4.90;;
72949;SDS011;64868;45.710;9.590;2023-05-29T12:45:01;10.43;;;5.18;;
72949;SDS011;64868;45.710;9.590;2023-05-29T12:47:34;12.05;;;5.20;;
72949;SDS011;64868;45.710;9.590;2023-05-29T12:50:08;11.57;;;4.88;;
72949;SDS011;64868;45.710;9.590;2023-05-29T12:52:59;9.50;;;5.00;;
72949;SDS011;64868;45.710;9.590;2023-05-29T12:55:32;8.52;;;4.80;;
72949;SDS011;64868;45.710;9.590;2023-05-29T12:58:06;9.07;;;4.60;;
72949;SDS011;64868;45.710;9.590;2023-05-29T13:00:40;8.85;;;4.60;;
72949;SDS011;64868;45.710;9.590;2023-05-29T13:03:12;8.75;;;4.68;;
72949;SDS011;64868;45.710;9.590;2023-05-29T13:09:06;10.73;;;4.90;;
72949;SDS011;64868;45.710;9.590;2023-05-29T13:11:39;11.18;;;4.72;;
72949;SDS011;64868;45.710;9.590;2023-05-29T13:14:12;8.65;;;4.65;;
72949;SDS011;64868;45.710;9.590;2023-05-29T13:16:44;11.85;;;4.63;;
72949;SDS011;64868;45.710;9.590;2023-05-29T13:19:17;8.52;;;4.60;;
72949;SDS011;64868;45.710;9.590;2023-05-29T13:21:49;9.57;;;5.15;;
72949;SDS011;64868;45.710;9.590;2023-05-29T13:24:20;11.40;;;5.30;;
72949;SDS011;64868;45.710;9.590;2023-05-29T13:26:50;12.40;;;5.05;;
72949;SDS011;64868;45.710;9.590;2023-05-29T13:29:22;8.38;;;4.60;;
72949;SDS011;64868;45.710;9.590;2023-05-29T13:31:52;8.50;;;4.43;;
72949;SDS011;64868;45.710;9.590;2023-05-29T13:34:22;9.45;;;4.45;;
72949;SDS011;64868;45.710;9.590;2023-05-29T13:36:56;8.07;;;4.47;;
72949;SDS011;64868;45.710;9.590;2023-05-29T13:39:28;8.90;;;5.03;;
72949;SDS011;64868;45.710;9.590;2023-05-29T13:42:17;8.75;;;4.88;;
72949;SDS011;64868;45.710;9.590;2023-05-29T13:47:35;8.27;;;5.00;;
72949;SDS011;64868;45.710;9.590;2023-05-29T13:50:05;9.93;;;4.93;;
72949;SDS011;64868;45.710;9.590;2023-05-29T13:52:52;10.00;;;4.97;;
72949;SDS011;64868;45.710;9.590;2023-05-29T13:55:39;9.27;;;4.90;;
72949;SDS011;64868;45.710;9.590;2023-05-29T13:58:10;10.68;;;5.35;;
72949;SDS011;64868;45.710;9.590;2023-05-29T14:00:42;11.50;;;5.25;;
72949;SDS011;64868;45.710;9.590;2023-05-29T14:03:15;8.80;;;4.65;;
72949;SDS011;64868;45.710;9.590;2023-05-29T14:05:48;9.27;;;4.75;;
72949;SDS011;64868;45.710;9.590;2023-05-29T14:08:21;9.70;;;5.05;;
72949;SDS011;64868;45.710;9.590;2023-05-29T14:10:51;8.95;;;4.82;;
72949;SDS011;64868;45.710;9.590;2023-05-29T14:13:21;9.98;;;4.75;;
72949;SDS011;64868;45.710;9.590;2023-05-29T14:15:54;8.75;;;4.80;;
72949;SDS011;64868;45.710;9.590;2023-05-29T14:18:24;9.10;;;4.70;;
72949;SDS011;64868;45.710;9.590;2023-05-29T14:26:35;8.70;;;4.72;;
72949;SDS011;64868;45.710;9.590;2023-05-29T14:29:23;8.68;;;4.63;;
72949;SDS011;64868;45.710;9.590;2023-05-29T14:31:54;9.57;;;4.82;;
72949;SDS011;64868;45.710;9.590;2023-05-29T14:34:21;8.23;;;4.80;;
72949;SDS011;64868;45.710;9.590;2023-05-29T14:39:59;11.05;;;5.40;;
72949;SDS011;64868;45.710;9.590;2023-05-29T14:42:30;8.52;;;5.13;;
72949;SDS011;64868;45.710;9.590;2023-05-29T14:44:58;8.05;;;4.60;;
72949;SDS011;64868;45.710;9.590;2023-05-29T14:47:30;9.73;;;4.47;;
72949;SDS011;64868;45.710;9.590;2023-05-29T14:50:19;8.60;;;5.00;;
72949;SDS011;64868;45.710;9.590;2023-05-29T14:52:50;7.85;;;4.93;;
72949;SDS011;64868;45.710;9.590;2023-05-29T14:55:23;8.35;;;4.70;;
72949;SDS011;64868;45.710;9.590;2023-05-29T14:57:55;9.10;;;4.53;;
72949;SDS011;64868;45.710;9.590;2023-05-29T15:00:28;10.15;;;5.32;;
72949;SDS011;64868;45.710;9.590;2023-05-29T15:02:58;12.30;;;4.57;;
72949;SDS011;64868;45.710;9.590;2023-05-29T15:08:18;10.05;;;4.72;;
72949;SDS011;64868;45.710;9.590;2023-05-29T15:10:51;9.45;;;4.80;;
72949;SDS011;64868;45.710;9.590;2023-05-29T15:13:21;9.70;;;4.78;;
72949;SDS011;64868;45.710;9.590;2023-05-29T15:18:37;8.90;;;4.38;;
72949;SDS011;64868;45.710;9.590;2023-05-29T15:21:10;8.05;;;4.13;;
72949;SDS011;64868;45.710;9.590;2023-05-29T15:23:43;8.05;;;4.32;;
72949;SDS011;64868;45.710;9.590;2023-05-29T15:26:16;7.43;;;4.07;;
72949;SDS011;64868;45.710;9.590;2023-05-29T15:28:48;9.85;;;5.10;;
72949;SDS011;64868;45.710;9.590;2023-05-29T15:31:37;11.20;;;5.10;;
72949;SDS011;64868;45.710;9.590;2023-05-29T15:34:09;11.35;;;5.07;;
72949;SDS011;64868;45.710;9.590;2023-05-29T15:36:37;9.75;;;4.88;;
72949;SDS011;64868;45.710;9.590;2023-05-29T15:39:04;8.75;;;4.82;;
72949;SDS011;64868;45.710;9.590;2023-05-29T15:44:39;11.05;;;4.28;;
72949;SDS011;64868;45.710;9.590;2023-05-29T15:47:09;8.68;;;4.32;;
72949;SDS011;64868;45.710;9.590;2023-05-29T15:49:40;9.15;;;4.90;;
72949;SDS011;64868;45.710;9.590;2023-05-29T15:52:12;9.05;;;4.25;;
72949;SDS011;64868;45.710;9.590;2023-05-29T15:54:42;9.85;;;5.32;;
72949;SDS011;64868;45.710;9.590;2023-05-29T15:57:15;10.27;;;4.88;;
72949;SDS011;64868;45.710;9.590;2023-05-29T15:59:45;10.32;;;5.43;;
72949;SDS011;64868;45.710;9.590;2023-05-29T16:02:18;8.55;;;4.90;;
72949;SDS011;64868;45.710;9.590;2023-05-29T16:04:48;10.15;;;5.10;;
72949;SDS011;64868;45.710;9.590;2023-05-29T16:07:18;8.70;;;4.80;;
72949;SDS011;64868;45.710;9.590;2023-05-29T16:09:48;9.70;;;5.18;;
72949;SDS011;64868;45.710;9.590;2023-05-29T16:15:23;8.32;;;4.53;;
72949;SDS011;64868;45.710;9.590;2023-05-29T16:17:53;8.40;;;4.10;;
72949;SDS011;64868;45.710;9.590;2023-05-29T16:20:26;10.27;;;5.25;;
72949;SDS011;64868;45.710;9.590;2023-05-29T16:23:10;9.45;;;4.93;;
72949;SDS011;64868;45.710;9.590;2023-05-29T16:28:42;8.48;;;4.22;;
72949;SDS011;64868;45.710;9.590;2023-05-29T16:34:01;10.50;;;5.03;;
72949;SDS011;64868;45.710;9.590;2023-05-29T16:36:32;9.90;;;4.63;;
72949;SDS011;64868;45.710;9.590;2023-05-29T16:39:21;11.18;;;4.65;;
72949;SDS011;64868;45.710;9.590;2023-05-29T16:41:54;9.60;;;4.18;;
72949;SDS011;64868;45.710;9.590;2023-05-29T16:44:27;10.35;;;4.25;;
72949;SDS011;64868;45.710;9.590;2023-05-29T16:46:57;7.78;;;4.28;;
72949;SDS011;64868;45.710;9.590;2023-05-29T16:49:29;10.65;;;4.65;;
72949;SDS011;64868;45.710;9.590;2023-05-29T16:51:57;8.07;;;4.55;;
72949;SDS011;64868;45.710;9.590;2023-05-29T16:54:27;11.73;;;4.90;;
72949;SDS011;64868;45.710;9.590;2023-05-29T16:56:58;12.40;;;4.93;;
72949;SDS011;64868;45.710;9.590;2023-05-29T16:59:28;8.95;;;4.63;;
72949;SDS011;64868;45.710;9.590;2023-05-29T17:02:17;13.13;;;4.82;;
72949;SDS011;64868;45.710;9.590;2023-05-29T17:04:47;9.25;;;4.60;;
72949;SDS011;64868;45.710;9.590;2023-05-29T17:07:17;10.05;;;4.90;;
72949;SDS011;64868;45.710;9.590;2023-05-29T17:12:34;8.13;;;4.57;;
72949;SDS011;64868;45.710;9.590;2023-05-29T17:15:02;12.05;;;4.90;;
72949;SDS011;64868;45.710;9.590;2023-05-29T17:17:35;10.90;;;4.47;;
72949;SDS011;64868;45.710;9.590;2023-05-29T17:22:57;10.68;;;4.88;;
72949;SDS011;64868;45.710;9.590;2023-05-29T17:28:14;11.85;;;5.05;;
72949;SDS011;64868;45.710;9.590;2023-05-29T17:30:44;10.40;;;4.75;;
72949;SDS011;64868;45.710;9.590;2023-05-29T17:33:14;8.10;;;4.57;;
72949;SDS011;64868;45.710;9.590;2023-05-29T17:36:03;7.88;;;4.30;;
72949;SDS011;64868;45.710;9.590;2023-05-29T17:38:33;11.07;;;5.18;;
72949;SDS011;64868;45.710;9.590;2023-05-29T17:41:01;10.20;;;4.95;;
72949;SDS011;64868;45.710;9.590;2023-05-29T17:43:31;8.60;;;4.47;;
72949;SDS011;64868;45.710;9.590;2023-05-29T17:46:03;10.05;;;4.50;;
72949;SDS011;64868;45.710;9.590;2023-05-29T17:48:33;10.55;;;4.60;;
72949;SDS011;64868;45.710;9.590;2023-05-29T17:51:06;8.07;;;4.80;;
72949;SDS011;64868;45.710;9.590;2023-05-29T17:53:34;9.52;;;4.25;;
72949;SDS011;64868;45.710;9.590;2023-05-29T17:56:06;9.80;;;4.97;;
72949;SDS011;64868;45.710;9.590;2023-05-29T17:58:55;9.10;;;4.43;;
72949;SDS011;64868;45.710;9.590;2023-05-29T18:01:33;8.20;;;4.25;;
72949;SDS011;64868;45.710;9.590;2023-05-29T18:04:12;7.97;;;4.40;;
72949;SDS011;64868;45.710;9.590;2023-05-29T18:06:51;11.50;;;4.50;;
72949;SDS011;64868;45.710;9.590;2023-05-29T18:09:29;10.88;;;5.30;;
72949;SDS011;64868;45.710;9.590;2023-05-29T18:12:08;9.00;;;5.10;;
72949;SDS011;64868;45.710;9.590;2023-05-29T18:14:47;9.73;;;4.93;;
72949;SDS011;64868;45.710;9.590;2023-05-29T18:17:25;8.63;;;4.80;;
72949;SDS011;64868;45.710;9.590;2023-05-29T18:20:04;8.25;;;4.68;;
72949;SDS011;64868;45.710;9.590;2023-05-29T18:22:44;8.90;;;4.60;;
72949;SDS011;64868;45.710;9.590;2023-05-29T18:25:22;10.38;;;5.18;;
72949;SDS011;64868;45.710;9.590;2023-05-29T18:28:01;9.75;;;4.95;;
72949;SDS011;64868;45.710;9.590;2023-05-29T18:30:39;9.60;;;4.75;;
72949;SDS011;64868;45.710;9.590;2023-05-29T18:33:18;8.77;;;5.15;;
72949;SDS011;64868;45.710;9.590;2023-05-29T18:35:57;11.80;;;5.22;;
72949;SDS011;64868;45.710;9.590;2023-05-29T18:38:50;9.45;;;5.10;;
72949;SDS011;64868;45.710;9.590;2023-05-29T18:41:43;9.00;;;4.75;;
72949;SDS011;64868;45.710;9.590;2023-05-29T18:47:32;12.02;;;5.32;;
72949;SDS011;64868;45.710;9.590;2023-05-29T18:50:11;11.27;;;4.60;;
72949;SDS011;64868;45.710;9.590;2023-05-29T18:52:50;9.77;;;5.03;;
72949;SDS011;64868;45.710;9.590;2023-05-29T18:55:42;9.73;;;4.85;;
72949;SDS011;64868;45.710;9.590;2023-05-29T18:58:21;7.43;;;4.10;;
72949;SDS011;64868;45.710;9.590;2023-05-29T19:01:00;9.20;;;5.10;;
72949;SDS011;64868;45.710;9.590;2023-05-29T19:03:38;9.18;;;5.20;;